createdAt,value
2022-09-07T00:00:13.703Z,100669.06
2022-09-07T00:02:47.913Z,100674.75
2022-09-07T00:05:15.551Z,100669.16
2022-09-07T00:07:48.715Z,100665.97
2022-09-07T00:10:18.668Z,100657.19
2022-09-07T00:12:48.770Z,100663.97
2022-09-07T00:15:19.857Z,100659.56
2022-09-07T00:17:47.564Z,100655.38
2022-09-07T00:20:16.890Z,100653.16
2022-09-07T00:22:47.806Z,100656.16
2022-09-07T00:25:15.315Z,100649.16
2022-09-07T00:27:43.396Z,100654.19
2022-09-07T00:30:14.544Z,100651.28
2022-09-07T00:32:48.039Z,100656.19
2022-09-07T00:35:15.758Z,100657.09
2022-09-07T00:37:43.780Z,100647.88
2022-09-07T00:40:11.445Z,100646.78
2022-09-07T00:42:45.721Z,100650.78
2022-09-07T00:45:18.615Z,100656.00
2022-09-07T00:47:50.002Z,100650.31
2022-09-07T00:50:38.082Z,100648.78
2022-09-07T00:53:10.577Z,100651.59
2022-09-07T00:55:42.888Z,100651.59
2022-09-07T00:58:11.033Z,100649.09
2022-09-07T01:00:41.056Z,100645.38
2022-09-07T01:03:12.178Z,100650.63
2022-09-07T01:05:42.813Z,100645.81
2022-09-07T01:08:13.338Z,100646.19
2022-09-07T01:10:44.106Z,100641.81
2022-09-07T01:13:11.615Z,100644.78
2022-09-07T01:15:43.720Z,100643.19
2022-09-07T01:18:35.441Z,100638.94
2022-09-07T01:22:01.326Z,100633.59
2022-09-07T01:24:52.695Z,100639.50
2022-09-07T01:27:49.391Z,100653.91
2022-09-07T01:30:19.628Z,100650.44
2022-09-07T01:32:59.223Z,100654.94
2022-09-07T01:35:39.442Z,100648.56
2022-09-07T01:38:47.410Z,100649.31
2022-09-07T01:41:18.737Z,100649.03
2022-09-07T01:44:02.455Z,100650.66
2022-09-07T01:46:39.099Z,100652.06
2022-09-07T01:49:35.091Z,100648.25
2022-09-07T01:52:16.774Z,100649.97
2022-09-07T01:55:06.956Z,100652.38
2022-09-07T01:57:44.325Z,100645.06
2022-09-07T02:00:19.980Z,100653.84
2022-09-07T02:03:01.569Z,100643.75
2022-09-07T02:05:35.933Z,100644.25
2022-09-07T02:08:13.562Z,100643.47
2022-09-07T02:10:59.532Z,100651.06
2022-09-07T02:13:48.587Z,100653.06
2022-09-07T02:16:29.553Z,100647.66
2022-09-07T02:19:09.207Z,100645.53
2022-09-07T02:21:43.361Z,100646.84
2022-09-07T02:24:23.994Z,100656.56
2022-09-07T02:27:04.781Z,100657.75
2022-09-07T02:29:32.776Z,100654.63
2022-09-07T02:32:03.193Z,100659.25
2022-09-07T02:34:32.348Z,100657.47
2022-09-07T02:37:06.670Z,100660.03
2022-09-07T02:39:40.688Z,100654.63
2022-09-07T02:42:09.482Z,100643.75
2022-09-07T02:44:42.921Z,100645.44
2022-09-07T02:47:23.239Z,100642.63
2022-09-07T02:50:17.437Z,100637.16
2022-09-07T02:53:22.057Z,100638.19
2022-09-07T02:56:04.871Z,100638.84
2022-09-07T02:58:42.359Z,100639.63
2022-09-07T03:01:26.175Z,100630.78
2022-09-07T03:04:12.684Z,100624.59
2022-09-07T03:06:49.144Z,100629.78
2022-09-07T03:09:21.044Z,100621.44
2022-09-07T03:11:49.213Z,100623.50
2022-09-07T03:14:20.959Z,100620.69
2022-09-07T03:16:51.463Z,100632.28
2022-09-07T03:19:18.911Z,100633.47
2022-09-07T03:21:46.425Z,100640.41
2022-09-07T03:24:13.799Z,100642.91
2022-09-07T03:26:45.582Z,100645.56
2022-09-07T03:29:13.340Z,100635.13
2022-09-07T03:31:41.177Z,100638.09
2022-09-07T03:34:08.979Z,100642.94
2022-09-07T03:36:36.470Z,100649.81
2022-09-07T03:39:05.840Z,100659.56
2022-09-07T03:41:34.034Z,100653.91
2022-09-07T03:44:06.080Z,100664.25
2022-09-07T03:46:34.129Z,100659.88
2022-09-07T03:49:01.663Z,100666.13
2022-09-07T03:51:29.377Z,100670.78
2022-09-07T03:53:56.830Z,100671.66
2022-09-07T03:56:27.042Z,100670.28
2022-09-07T03:58:55.446Z,100668.69
2022-09-07T04:01:41.700Z,100679.97
2022-09-07T04:04:14.992Z,100675.63
2022-09-07T04:06:47.755Z,100686.28
2022-09-07T04:09:21.896Z,100682.25
2022-09-07T04:11:53.345Z,100667.50
2022-09-07T04:14:25.021Z,100672.28
2022-09-07T04:16:53.135Z,100678.94
2022-09-07T04:19:29.441Z,100678.41
2022-09-07T04:21:57.504Z,100690.22
2022-09-07T04:24:25.610Z,100694.78
2022-09-07T04:26:54.557Z,100699.81
2022-09-07T04:29:28.649Z,100693.28
2022-09-07T04:31:59.374Z,100694.66
2022-09-07T04:34:30.211Z,100692.81
2022-09-07T04:36:57.599Z,100698.94
2022-09-07T04:39:36.887Z,100687.97
2022-09-07T04:42:04.472Z,100686.78
2022-09-07T04:44:34.742Z,100687.66
2022-09-07T04:47:05.472Z,100686.16
2022-09-07T04:49:36.343Z,100676.94
2022-09-07T04:52:10.767Z,100681.56
2022-09-07T04:54:41.704Z,100681.69
2022-09-07T04:57:11.231Z,100679.66
2022-09-07T04:59:38.713Z,100678.97
2022-09-07T05:02:06.806Z,100672.63
2022-09-07T05:04:40.662Z,100679.25
2022-09-07T05:07:11.351Z,100681.03
2022-09-07T05:09:46.022Z,100681.34
2022-09-07T05:12:17.128Z,100685.22
2022-09-07T05:14:48.275Z,100685.00
2022-09-07T05:17:19.541Z,100670.56
2022-09-07T05:19:49.827Z,100676.34
2022-09-07T05:22:20.094Z,100679.78
2022-09-07T05:24:56.605Z,100675.16
2022-09-07T05:27:30.743Z,100670.03
2022-09-07T05:32:37.578Z,100672.28
2022-09-07T05:35:08.853Z,100669.25
2022-09-07T05:37:36.175Z,100666.88
2022-09-07T05:40:08.187Z,100663.38
2022-09-07T05:42:39.139Z,100670.53
2022-09-07T05:45:07.419Z,100671.53
2022-09-07T05:47:37.998Z,100668.22
2022-09-07T05:50:09.950Z,100674.38
2022-09-07T05:52:45.504Z,100671.25
2022-09-07T05:55:29.547Z,100681.81
2022-09-07T05:58:03.890Z,100682.63
2022-09-07T06:00:35.836Z,100677.03
2022-09-07T06:03:03.431Z,100684.44
2022-09-07T06:05:34.425Z,100679.47
2022-09-07T06:08:05.122Z,100684.81
2022-09-07T06:10:45.675Z,100675.84
2022-09-07T06:13:13.584Z,100680.38
2022-09-07T06:15:44.579Z,100676.88
2022-09-07T06:18:17.972Z,100688.06
2022-09-07T06:20:49.301Z,100686.47
2022-09-07T06:23:23.104Z,100691.03
2022-09-07T06:25:50.956Z,100692.44
2022-09-07T06:29:01.565Z,100683.94
2022-09-07T06:34:27.669Z,100682.56
2022-09-07T06:36:57.707Z,100684.59
2022-09-07T06:39:31.498Z,100683.19
2022-09-07T06:42:05.713Z,100683.75
2022-09-07T06:44:36.975Z,100692.75
2022-09-07T06:47:10.355Z,100695.75
2022-09-07T06:49:40.258Z,100692.34
2022-09-07T06:52:10.552Z,100708.09
2022-09-07T06:57:31.968Z,100722.63
2022-09-07T07:00:05.223Z,100723.97
2022-09-07T07:02:46.554Z,100722.75
2022-09-07T07:05:24.214Z,100722.09
2022-09-07T07:07:57.704Z,100731.19
2022-09-07T07:10:29.527Z,100736.09
2022-09-07T07:12:59.746Z,100733.31
2022-09-07T07:15:33.569Z,100736.97
2022-09-07T07:18:20.270Z,100738.22
2022-09-07T07:20:55.114Z,100737.56
2022-09-07T07:23:24.893Z,100741.63
2022-09-07T07:25:52.315Z,100735.28
2022-09-07T07:31:19.246Z,100735.44
2022-09-07T07:33:52.230Z,100741.81
2022-09-07T07:37:04.931Z,100745.28
2022-09-07T07:50:56.602Z,100744.53
2022-09-07T07:53:47.471Z,100744.13
2022-09-07T07:56:16.557Z,100737.31
2022-09-07T07:58:48.103Z,100737.41
2022-09-07T08:01:22.494Z,100741.41
2022-09-07T08:03:52.930Z,100738.47
2022-09-07T08:06:21.200Z,100740.16
2022-09-07T08:08:51.997Z,100735.63
2022-09-07T08:11:25.003Z,100726.56
2022-09-07T08:13:52.854Z,100729.88
2022-09-07T08:16:29.683Z,100725.44
2022-09-07T08:19:03.330Z,100721.56
2022-09-07T08:21:37.797Z,100722.84
2022-09-07T08:24:05.373Z,100722.84
2022-09-07T08:26:35.907Z,100723.06
2022-09-07T08:29:03.488Z,100726.34
2022-09-07T08:31:30.910Z,100719.59
2022-09-07T08:34:02.471Z,100719.81
2022-09-07T08:36:33.407Z,100716.72
2022-09-07T08:39:05.681Z,100713.56
2022-09-07T08:41:45.626Z,100712.72
2022-09-07T08:44:24.366Z,100719.72
2022-09-07T08:46:57.985Z,100717.13
2022-09-07T08:49:47.449Z,100714.56
2022-09-07T08:52:25.021Z,100713.50
2022-09-07T08:55:03.915Z,100708.13
2022-09-07T08:57:35.168Z,100701.09
2022-09-07T09:00:11.539Z,100702.13
2022-09-07T09:02:45.600Z,100697.56
2022-09-07T09:05:21.965Z,100699.91
2022-09-07T09:08:27.359Z,100689.97
2022-09-07T09:11:06.497Z,100688.72
2022-09-07T09:13:59.746Z,100679.97
2022-09-07T09:16:55.287Z,100675.09
2022-09-07T09:19:54.700Z,100668.59
2022-09-07T09:22:28.812Z,100668.69
2022-09-07T09:25:23.684Z,100669.13
2022-09-07T09:27:53.907Z,100660.22
2022-09-07T09:30:26.022Z,100664.97
2022-09-07T09:33:29.069Z,100663.75
2022-09-07T09:36:01.714Z,100663.81
2022-09-07T09:38:35.998Z,100657.47
2022-09-07T09:41:11.390Z,100654.81
2022-09-07T09:43:52.866Z,100648.63
2022-09-07T09:46:25.539Z,100651.38
2022-09-07T09:49:16.414Z,100650.00
2022-09-07T09:54:55.827Z,100642.03
2022-09-07T09:59:04.811Z,100643.06
2022-09-07T10:00:36.406Z,100640.16
2022-09-07T10:06:16.928Z,100641.16
2022-09-07T10:09:01.233Z,100635.94
2022-09-07T10:14:42.147Z,100618.97
2022-09-07T10:17:42.947Z,100610.44
2022-09-07T10:20:13.741Z,100612.84
2022-09-07T10:22:51.775Z,100614.22
2022-09-07T10:25:42.067Z,100605.84
2022-09-07T10:28:19.974Z,100603.75
2022-09-07T10:31:12.453Z,100603.13
2022-09-07T10:36:55.160Z,100608.44
2022-09-07T10:39:50.947Z,100604.84
2022-09-07T10:42:30.523Z,100602.44
2022-09-07T10:45:24.351Z,100598.94
2022-09-07T10:48:03.671Z,100590.78
2022-09-07T10:50:43.530Z,100586.63
2022-09-07T10:53:44.658Z,100582.59
2022-09-07T10:56:35.503Z,100592.38
2022-09-07T11:00:07.429Z,100582.59
2022-09-07T11:02:24.856Z,100576.50
2022-09-07T11:05:35.105Z,100576.81
2022-09-07T11:08:27.168Z,100581.59
2022-09-07T11:11:10.232Z,100583.38
2022-09-07T11:14:08.982Z,100572.38
2022-09-07T11:16:51.041Z,100576.53
2022-09-07T11:19:44.107Z,100569.34
2022-09-07T11:22:21.147Z,100566.91
2022-09-07T11:25:33.044Z,100569.75
2022-09-07T11:28:14.209Z,100563.91
2022-09-07T11:30:47.982Z,100557.38
2022-09-07T11:33:27.313Z,100560.19
2022-09-07T11:36:11.833Z,100560.81
2022-09-07T11:38:47.048Z,100557.22
2022-09-07T11:41:17.843Z,100550.03
2022-09-07T11:44:01.105Z,100554.09
2022-09-07T11:46:43.501Z,100554.91
2022-09-07T11:49:22.300Z,100545.66
2022-09-07T11:51:55.773Z,100549.03
2022-09-07T11:54:45.129Z,100539.53
2022-09-07T11:57:15.727Z,100541.75
2022-09-07T12:00:18.909Z,100540.38
2022-09-07T12:03:04.940Z,100533.19
2022-09-07T12:05:44.173Z,100539.38
2022-09-07T12:08:25.762Z,100538.22
2022-09-07T12:11:01.970Z,100528.50
2022-09-07T12:13:37.692Z,100531.53
2022-09-07T12:16:23.367Z,100523.81
2022-09-07T12:19:19.594Z,100523.94
2022-09-07T12:21:53.293Z,100516.41
2022-09-07T12:24:34.754Z,100528.53
2022-09-07T12:27:22.268Z,100520.13
2022-09-07T12:30:07.965Z,100524.81
2022-09-07T12:32:55.803Z,100520.88
2022-09-07T12:35:26.308Z,100514.31
2022-09-07T12:37:54.910Z,100516.03
2022-09-07T12:40:28.215Z,100511.34
2022-09-07T12:43:13.811Z,100511.72
2022-09-07T12:45:41.296Z,100511.63
2022-09-07T12:48:29.186Z,100503.06
2022-09-07T12:51:59.346Z,100510.59
2022-09-07T12:54:24.648Z,100505.75
2022-09-07T12:59:51.652Z,100503.03
2022-09-07T13:02:22.216Z,100501.91
2022-09-07T13:05:30.657Z,100498.91
2022-09-07T13:08:13.583Z,100492.28
2022-09-07T13:10:43.342Z,100485.16
2022-09-07T13:13:14.506Z,100489.53
2022-09-07T13:15:49.009Z,100482.56
2022-09-07T13:18:28.775Z,100481.53
2022-09-07T13:21:08.144Z,100486.34
2022-09-07T13:23:40.022Z,100491.28
2022-09-07T13:26:15.134Z,100481.00
2022-09-07T13:28:51.133Z,100485.03
2022-09-07T13:31:46.566Z,100478.69
2022-09-07T13:34:41.522Z,100472.38
2022-09-07T13:37:19.121Z,100471.84
2022-09-07T13:39:58.877Z,100469.38
2022-09-07T13:42:32.510Z,100468.22
2022-09-07T13:45:02.326Z,100470.97
2022-09-07T13:47:43.502Z,100468.56
2022-09-07T13:50:13.827Z,100468.34
2022-09-07T13:53:09.001Z,100462.38
2022-09-07T13:56:11.734Z,100453.53
2022-09-07T13:58:46.368Z,100455.13
2022-09-07T14:01:21.718Z,100458.72
2022-09-07T14:03:53.738Z,100450.38
2022-09-07T14:06:21.092Z,100453.63
2022-09-07T14:09:01.089Z,100453.16
2022-09-07T14:11:40.283Z,100453.84
2022-09-07T14:14:30.636Z,100445.56
2022-09-07T14:17:00.933Z,100446.84
2022-09-07T14:19:46.359Z,100450.94
2022-09-07T14:22:31.998Z,100441.38
2022-09-07T14:25:01.855Z,100444.59
2022-09-07T14:27:41.388Z,100440.50
2022-09-07T14:30:30.737Z,100445.97
2022-09-07T14:33:05.081Z,100438.84
2022-09-07T14:35:34.533Z,100438.84
2022-09-07T14:41:25.873Z,100438.69
2022-09-07T14:44:00.389Z,100428.50
2022-09-07T14:46:33.371Z,100432.22
2022-09-07T14:49:18.640Z,100434.81
2022-09-07T14:51:48.479Z,100432.38
2022-09-07T14:54:36.332Z,100433.84
2022-09-07T14:57:29.840Z,100430.47
2022-09-07T15:00:17.633Z,100428.78
2022-09-07T15:02:47.753Z,100423.06
2022-09-07T15:05:25.483Z,100425.25
2022-09-07T15:07:57.302Z,100425.91
2022-09-07T15:10:31.706Z,100414.09
2022-09-07T15:13:03.297Z,100417.56
2022-09-07T15:15:37.478Z,100418.22
2022-09-07T15:18:46.361Z,100416.81
2022-09-07T15:21:14.692Z,100418.72
2022-09-07T15:23:44.973Z,100417.84
2022-09-07T15:29:14.537Z,100423.69
2022-09-07T15:31:59.357Z,100418.66
2022-09-07T15:34:35.186Z,100418.84
2022-09-07T15:40:02.085Z,100411.66
2022-09-07T15:45:23.595Z,100408.63
2022-09-07T15:47:53.298Z,100406.78
2022-09-07T15:50:23.109Z,100406.28
2022-09-07T15:52:51.165Z,100401.06
2022-09-07T15:55:18.846Z,100406.41
2022-09-07T15:57:54.581Z,100406.41
2022-09-07T16:00:31.955Z,100409.41
2022-09-07T16:03:06.817Z,100403.19
2022-09-07T16:05:39.766Z,100399.06
2022-09-07T16:08:27.545Z,100397.50
2022-09-07T16:11:05.246Z,100400.09
2022-09-07T16:13:37.229Z,100401.94
2022-09-07T16:16:11.081Z,100399.16
2022-09-07T16:18:41.877Z,100397.84
2022-09-07T16:21:13.319Z,100393.72
2022-09-07T16:23:50.390Z,100399.47
2022-09-07T16:26:20.788Z,100403.16
2022-09-07T16:28:54.461Z,100402.97
2022-09-07T16:31:26.506Z,100401.50
2022-09-07T16:34:02.042Z,100400.28
2022-09-07T16:36:32.794Z,100403.09
2022-09-07T16:39:03.909Z,100402.06
2022-09-07T16:41:32.028Z,100404.22
2022-09-07T16:44:02.402Z,100396.94
2022-09-07T16:46:30.438Z,100397.13
2022-09-07T16:49:02.018Z,100387.78
2022-09-07T16:51:36.002Z,100401.25
2022-09-07T16:54:13.309Z,100400.59
2022-09-07T16:56:48.253Z,100411.53
2022-09-07T16:59:30.601Z,100407.47
2022-09-07T17:02:05.286Z,100404.38
2022-09-07T17:04:34.525Z,100403.75
2022-09-07T17:07:05.011Z,100408.66
2022-09-07T17:09:35.451Z,100417.31
2022-09-07T17:12:04.556Z,100414.28
2022-09-07T17:14:35.619Z,100423.19
2022-09-07T17:17:06.004Z,100433.09
2022-09-07T17:19:35.627Z,100430.47
2022-09-07T17:22:03.937Z,100434.34
2022-09-07T17:24:32.209Z,100438.16
2022-09-07T17:27:01.334Z,100443.19
2022-09-07T17:29:29.605Z,100447.94
2022-09-07T17:35:00.827Z,100452.28
2022-09-07T17:37:36.334Z,100446.53
2022-09-07T17:40:10.524Z,100451.28
2022-09-07T17:45:47.766Z,100452.88
2022-09-07T17:48:15.055Z,100446.34
2022-09-07T17:50:43.003Z,100452.34
2022-09-07T17:53:19.228Z,100452.31
2022-09-07T17:55:49.669Z,100457.88
2022-09-07T17:58:17.002Z,100453.44
2022-09-07T18:00:44.985Z,100451.09
2022-09-07T18:03:13.763Z,100452.44
2022-09-07T18:05:41.285Z,100450.19
2022-09-07T18:08:12.286Z,100453.22
2022-09-07T18:13:36.088Z,100449.31
2022-09-07T18:16:29.216Z,100451.63
2022-09-07T18:19:00.086Z,100447.72
2022-09-07T18:21:44.318Z,100461.44
2022-09-07T18:24:18.409Z,100456.44
2022-09-07T18:26:52.423Z,100456.66
2022-09-07T18:29:29.489Z,100451.31
2022-09-07T18:32:08.450Z,100455.97
2022-09-07T18:34:41.695Z,100460.06
2022-09-07T18:37:19.233Z,100458.53
2022-09-07T18:39:54.721Z,100458.69
2022-09-07T18:42:22.385Z,100461.88
2022-09-07T18:47:36.926Z,100461.50
2022-09-07T18:50:11.149Z,100464.22
2022-09-07T18:52:59.109Z,100466.72
2022-09-07T18:55:32.224Z,100461.41
2022-09-07T18:58:00.014Z,100466.41
2022-09-07T19:00:30.511Z,100458.47
2022-09-07T19:03:03.832Z,100468.22
2022-09-07T19:05:50.688Z,100449.63
2022-09-07T19:08:24.352Z,100450.31
2022-09-07T19:10:52.385Z,100447.56
2022-09-07T19:13:22.364Z,100449.81
2022-09-07T19:15:53.330Z,100445.31
2022-09-07T19:18:27.226Z,100449.81
2022-09-07T19:21:06.084Z,100444.16
2022-09-07T19:23:36.802Z,100445.16
2022-09-07T19:26:09.554Z,100447.56
2022-09-07T19:28:40.045Z,100446.28
2022-09-07T19:31:07.913Z,100448.34
2022-09-07T19:33:41.055Z,100440.41
2022-09-07T19:36:19.113Z,100440.97
2022-09-07T19:38:46.467Z,100446.41
2022-09-07T19:41:17.201Z,100441.00
2022-09-07T19:43:59.347Z,100437.72
2022-09-07T19:46:36.612Z,100439.16
2022-09-07T19:49:07.329Z,100433.81
2022-09-07T19:51:36.874Z,100442.31
2022-09-07T19:54:10.730Z,100445.06
2022-09-07T19:56:40.256Z,100449.91
2022-09-07T19:59:07.711Z,100448.78
2022-09-07T20:01:41.654Z,100448.88
2022-09-07T20:04:19.010Z,100458.28
2022-09-07T20:06:48.256Z,100452.25
2022-09-07T20:09:16.740Z,100461.91
2022-09-07T20:11:46.700Z,100460.66
2022-09-07T20:14:21.120Z,100453.81
2022-09-07T20:16:48.485Z,100455.00
2022-09-07T20:19:23.213Z,100454.53
2022-09-07T20:21:50.797Z,100458.91
2022-09-07T20:24:20.243Z,100450.28
2022-09-07T20:26:57.694Z,100457.31
2022-09-07T20:29:30.205Z,100455.38
2022-09-07T20:32:01.992Z,100450.41
2022-09-07T20:34:31.632Z,100451.81
2022-09-07T20:36:58.962Z,100455.34
2022-09-07T20:39:26.315Z,100454.59
2022-09-07T20:41:54.325Z,100461.44
2022-09-07T20:44:24.734Z,100459.50
2022-09-07T20:46:52.095Z,100465.28
2022-09-07T20:49:19.409Z,100460.88
2022-09-07T20:51:46.784Z,100458.72
2022-09-07T20:54:14.278Z,100461.94
2022-09-07T20:56:41.907Z,100461.63
2022-09-07T20:59:09.409Z,100452.69
2022-09-07T21:01:36.891Z,100457.78
2022-09-07T21:04:04.487Z,100466.09
2022-09-07T21:06:32.661Z,100464.03
2022-09-07T21:09:00.522Z,100468.81
2022-09-07T21:11:33.988Z,100475.53
2022-09-07T21:14:02.383Z,100474.25
2022-09-07T21:16:29.878Z,100472.34
2022-09-07T21:18:59.264Z,100472.50
2022-09-07T21:21:36.631Z,100467.94
2022-09-07T21:24:07.141Z,100463.44
2022-09-07T21:26:34.471Z,100463.13
2022-09-07T21:29:03.706Z,100470.63
2022-09-07T21:31:32.741Z,100463.63
2022-09-07T21:34:01.642Z,100468.25
2022-09-07T21:36:30.226Z,100471.44
2022-09-07T21:38:57.581Z,100460.78
2022-09-07T21:41:25.636Z,100463.13
2022-09-07T21:44:01.519Z,100460.09
2022-09-07T21:46:31.451Z,100460.72
2022-09-07T21:48:59.930Z,100461.56
2022-09-07T21:51:27.766Z,100451.63
2022-09-07T21:53:57.242Z,100457.84
2022-09-07T21:56:25.704Z,100452.91
2022-09-07T21:58:58.014Z,100455.78
2022-09-07T22:01:27.400Z,100456.28
2022-09-07T22:03:57.122Z,100453.72
2022-09-07T22:06:25.432Z,100452.13
2022-09-07T22:08:52.735Z,100454.50
2022-09-07T22:11:22.202Z,100459.94
2022-09-07T22:13:53.082Z,100464.41
2022-09-07T22:16:20.433Z,100460.56
2022-09-07T22:18:48.214Z,100463.41
2022-09-07T22:21:18.431Z,100459.28
2022-09-07T22:23:48.813Z,100463.56
2022-09-07T22:26:21.153Z,100458.00
2022-09-07T22:28:48.930Z,100446.22
2022-09-07T22:31:28.861Z,100441.75
2022-09-07T22:33:58.276Z,100436.50
2022-09-07T22:36:28.887Z,100441.28
2022-09-07T22:38:59.059Z,100432.19
2022-09-07T22:41:32.386Z,100443.66
2022-09-07T22:44:00.024Z,100437.59
2022-09-07T22:46:30.256Z,100435.06
2022-09-07T22:48:58.899Z,100435.69
2022-09-07T22:51:27.098Z,100438.72
2022-09-07T22:53:55.601Z,100439.19
2022-09-07T22:56:25.617Z,100439.66
2022-09-07T22:58:56.793Z,100440.00
2022-09-07T23:01:24.648Z,100436.34
2022-09-07T23:03:52.198Z,100440.63
2022-09-07T23:06:23.860Z,100434.75
2022-09-07T23:08:53.712Z,100431.91
2022-09-07T23:11:21.367Z,100429.03
2022-09-07T23:13:59.266Z,100431.56
2022-09-07T23:16:27.741Z,100423.88
2022-09-07T23:18:56.072Z,100433.13
2022-09-07T23:21:23.885Z,100431.53
2022-09-07T23:23:56.768Z,100436.94
2022-09-07T23:26:25.903Z,100434.72
2022-09-07T23:28:58.947Z,100437.28
2022-09-07T23:31:27.279Z,100434.25
2022-09-07T23:33:56.259Z,100439.03
2022-09-07T23:36:24.304Z,100439.84
2022-09-07T23:38:54.950Z,100441.72
2022-09-07T23:41:23.987Z,100441.09
2022-09-07T23:43:54.751Z,100438.53
2022-09-07T23:46:22.724Z,100433.13
2022-09-07T23:48:51.094Z,100428.97
2022-09-07T23:51:23.579Z,100427.38
2022-09-07T23:53:52.789Z,100432.47
2022-09-07T23:56:20.837Z,100429.28
2022-09-07T23:58:48.714Z,100427.22
